createdAt,value
2017-11-22T00:00:36.997Z,3.60
2017-11-22T00:03:04.585Z,3.60
2017-11-22T00:05:37.935Z,3.60
2017-11-22T00:08:06.309Z,3.60
2017-11-22T00:10:34.033Z,3.70
2017-11-22T00:13:01.536Z,3.70
2017-11-22T00:15:29.087Z,3.50
2017-11-22T00:17:56.591Z,3.50
2017-11-22T00:20:24.095Z,3.50
2017-11-22T00:22:51.656Z,3.40
2017-11-22T00:25:19.163Z,3.40
2017-11-22T00:27:47.060Z,3.30
2017-11-22T00:30:15.320Z,3.30
2017-11-22T00:32:42.827Z,3.20
2017-11-22T00:35:10.582Z,3.10
2017-11-22T00:37:38.229Z,3.10
2017-11-22T00:40:05.734Z,3.00
2017-11-22T00:42:33.443Z,2.90
2017-11-22T00:45:01.040Z,2.80
2017-11-22T00:47:28.624Z,2.80
2017-11-22T00:49:56.132Z,2.70
2017-11-22T00:52:23.681Z,2.60
2017-11-22T00:54:51.185Z,2.60
2017-11-22T00:57:19.472Z,2.70
2017-11-22T00:59:47.541Z,2.70
2017-11-22T01:02:15.799Z,2.70
2017-11-22T01:04:43.555Z,2.80
2017-11-22T01:07:12.387Z,2.80
2017-11-22T01:09:39.894Z,2.90
2017-11-22T01:12:08.528Z,2.90
2017-11-22T01:17:10.397Z,2.90
2017-11-22T01:19:37.927Z,2.90
2017-11-22T01:22:06.828Z,2.90
2017-11-22T01:24:34.388Z,2.80
2017-11-22T01:27:01.918Z,2.80
2017-11-22T01:29:31.740Z,2.80
2017-11-22T01:31:59.253Z,2.80
2017-11-22T01:34:26.755Z,2.80
2017-11-22T01:36:54.906Z,2.80
2017-11-22T01:39:22.439Z,2.80
2017-11-22T01:41:50.156Z,2.80
2017-11-22T01:44:17.727Z,2.80
2017-11-22T01:46:45.233Z,2.80
2017-11-22T01:49:12.735Z,2.80
2017-11-22T01:51:40.298Z,2.80
2017-11-22T01:54:07.801Z,2.80
2017-11-22T01:56:35.316Z,2.80
2017-11-22T01:59:02.980Z,2.70
2017-11-22T02:01:30.492Z,2.70
2017-11-22T02:03:58.004Z,2.70
2017-11-22T02:06:26.025Z,2.70
2017-11-22T02:08:53.536Z,2.70
2017-11-22T02:11:21.832Z,2.60
2017-11-22T02:13:50.150Z,2.60
2017-11-22T02:16:17.672Z,2.60
2017-11-22T02:18:45.208Z,2.60
2017-11-22T02:21:13.535Z,2.50
2017-11-22T02:23:41.036Z,2.50
2017-11-22T02:26:08.561Z,2.50
2017-11-22T02:28:36.119Z,2.50
2017-11-22T02:31:03.620Z,2.50
2017-11-22T02:33:31.275Z,2.60
2017-11-22T02:35:58.832Z,2.70
2017-11-22T02:38:26.353Z,2.80
2017-11-22T02:40:53.863Z,2.70
2017-11-22T02:43:21.431Z,2.70
2017-11-22T02:45:48.941Z,2.60
2017-11-22T02:48:16.448Z,2.40
2017-11-22T02:50:44.029Z,2.50
2017-11-22T02:53:11.564Z,2.50
2017-11-22T02:55:39.076Z,2.50
2017-11-22T02:58:06.736Z,2.40
2017-11-22T03:00:34.252Z,2.40
2017-11-22T03:03:01.764Z,2.30
2017-11-22T03:05:29.317Z,2.20
2017-11-22T03:07:56.900Z,2.20
2017-11-22T03:10:24.505Z,2.10
2017-11-22T03:12:52.269Z,2.00
2017-11-22T03:15:19.789Z,2.00
2017-11-22T03:17:48.774Z,1.90
2017-11-22T03:20:16.344Z,1.90
2017-11-22T03:22:44.631Z,1.80
2017-11-22T03:25:12.912Z,1.70
2017-11-22T03:27:41.245Z,1.70
2017-11-22T03:30:08.768Z,1.60
2017-11-22T03:32:36.284Z,1.60
2017-11-22T03:35:03.944Z,1.90
2017-11-22T03:37:31.451Z,1.80
2017-11-22T03:39:59.896Z,1.70
2017-11-22T03:42:27.460Z,1.60
2017-11-22T03:44:54.986Z,1.50
2017-11-22T03:47:22.487Z,1.50
2017-11-22T03:49:56.560Z,1.40
2017-11-22T03:52:29.790Z,1.40
2017-11-22T03:54:57.528Z,1.40
2017-11-22T03:57:25.287Z,1.30
2017-11-22T03:59:52.784Z,1.30
2017-11-22T04:02:25.263Z,1.40
2017-11-22T04:04:53.564Z,1.40
2017-11-22T04:07:21.064Z,1.40
2017-11-22T04:09:48.657Z,1.30
2017-11-22T04:12:16.175Z,1.30
2017-11-22T04:14:43.705Z,1.20
2017-11-22T04:17:11.567Z,1.10
2017-11-22T04:19:39.068Z,1.10
2017-11-22T04:22:06.576Z,1.10
2017-11-22T04:24:34.133Z,1.10
2017-11-22T04:27:01.683Z,1.00
2017-11-22T04:29:29.485Z,1.00
2017-11-22T04:31:58.372Z,1.00
2017-11-22T04:34:26.596Z,1.00
2017-11-22T04:36:54.104Z,1.00
2017-11-22T04:39:21.667Z,1.00
2017-11-22T04:41:49.180Z,0.90
2017-11-22T04:44:16.690Z,1.00
2017-11-22T04:46:44.612Z,1.00
2017-11-22T04:49:12.136Z,1.10
2017-11-22T04:51:39.650Z,1.10
2017-11-22T04:54:07.220Z,1.20
2017-11-22T04:56:34.740Z,1.10
2017-11-22T04:59:02.308Z,1.10
2017-11-22T05:01:29.880Z,1.10
2017-11-22T05:03:57.390Z,1.10
2017-11-22T05:06:24.896Z,1.10
2017-11-22T05:08:52.884Z,1.00
2017-11-22T05:11:20.400Z,1.10
2017-11-22T05:13:47.911Z,1.10
2017-11-22T05:16:16.125Z,1.00
2017-11-22T05:18:44.417Z,0.90
2017-11-22T05:21:11.927Z,0.80
2017-11-22T05:23:39.475Z,0.80
2017-11-22T05:26:07.297Z,0.90
2017-11-22T05:28:35.049Z,0.90
2017-11-22T05:31:02.741Z,0.80
2017-11-22T05:33:30.264Z,0.80
2017-11-22T05:35:57.789Z,0.80
2017-11-22T05:38:25.452Z,0.70
2017-11-22T05:40:52.969Z,0.50
2017-11-22T05:43:20.488Z,0.50
2017-11-22T05:45:48.686Z,0.40
2017-11-22T05:48:17.096Z,0.40
2017-11-22T05:50:44.659Z,0.30
2017-11-22T05:53:12.170Z,0.40
2017-11-22T05:55:39.992Z,0.30
2017-11-22T05:58:07.516Z,0.40
2017-11-22T06:00:40.585Z,0.40
2017-11-22T06:03:08.752Z,0.30
2017-11-22T06:05:36.269Z,0.40
2017-11-22T06:08:03.936Z,0.40
2017-11-22T06:10:31.443Z,0.40
2017-11-22T06:12:58.965Z,0.30
2017-11-22T06:15:26.540Z,0.30
2017-11-22T06:17:54.051Z,0.30
2017-11-22T06:20:21.564Z,0.30
2017-11-22T06:22:49.127Z,0.30
2017-11-22T06:25:16.649Z,0.30
2017-11-22T06:27:44.650Z,0.20
2017-11-22T06:30:17.880Z,0.20
2017-11-22T06:32:45.396Z,0.30
2017-11-22T06:35:12.912Z,0.40
2017-11-22T06:37:40.577Z,0.50
2017-11-22T06:40:08.102Z,0.40
2017-11-22T06:42:36.756Z,0.30
2017-11-22T06:45:04.585Z,0.30
2017-11-22T06:47:32.369Z,0.40
2017-11-22T06:50:00.272Z,0.40
2017-11-22T06:52:27.845Z,0.40
2017-11-22T06:54:56.123Z,0.30
2017-11-22T06:57:23.632Z,0.30
2017-11-22T06:59:51.186Z,0.30
2017-11-22T07:02:19.486Z,0.30
2017-11-22T07:04:47.017Z,0.20
2017-11-22T07:07:14.786Z,0.20
2017-11-22T07:09:42.292Z,0.20
2017-11-22T07:12:09.801Z,0.30
2017-11-22T07:14:37.365Z,0.30
2017-11-22T07:17:10.429Z,0.40
2017-11-22T07:19:37.996Z,0.50
2017-11-22T07:22:05.508Z,0.60
2017-11-22T07:24:33.019Z,0.70
2017-11-22T07:27:00.688Z,0.70
2017-11-22T07:29:28.199Z,0.70
2017-11-22T07:31:55.928Z,0.70
2017-11-22T07:34:23.491Z,0.70
2017-11-22T07:36:56.724Z,0.70
2017-11-22T07:39:24.291Z,0.80
2017-11-22T07:41:52.310Z,0.80
2017-11-22T07:44:19.827Z,0.80
2017-11-22T07:46:47.758Z,0.90
2017-11-22T07:49:17.624Z,1.00
2017-11-22T07:51:51.128Z,1.00
2017-11-22T07:54:19.369Z,1.10
2017-11-22T07:56:47.675Z,1.30
2017-11-22T07:59:15.427Z,1.50
2017-11-22T08:01:42.953Z,1.50
2017-11-22T08:04:16.144Z,1.50
2017-11-22T08:06:44.077Z,1.60
2017-11-22T08:09:11.607Z,1.50
2017-11-22T08:11:39.542Z,1.60
2017-11-22T08:14:08.595Z,1.70
2017-11-22T08:16:36.133Z,1.70
2017-11-22T08:19:04.700Z,1.90
2017-11-22T08:21:32.204Z,1.90
2017-11-22T08:23:59.732Z,2.10
2017-11-22T08:26:27.443Z,2.30
2017-11-22T08:28:55.433Z,2.40
2017-11-22T08:31:22.952Z,2.50
2017-11-22T08:33:50.496Z,2.60
2017-11-22T08:36:18.015Z,2.80
2017-11-22T08:38:45.530Z,2.90
2017-11-22T08:41:13.794Z,3.10
2017-11-22T08:43:44.200Z,3.30
2017-11-22T08:46:11.708Z,3.40
2017-11-22T08:48:39.648Z,3.60
2017-11-22T08:51:07.328Z,3.80
2017-11-22T08:53:34.849Z,3.90
2017-11-22T08:56:09.302Z,3.90
2017-11-22T08:58:36.832Z,3.90
2017-11-22T09:01:04.917Z,4.10
2017-11-22T09:03:39.252Z,4.20
2017-11-22T09:06:13.410Z,4.40
2017-11-22T09:08:41.272Z,4.50
2017-11-22T09:11:08.777Z,4.60
2017-11-22T09:13:36.293Z,4.70
2017-11-22T09:16:03.863Z,4.90
2017-11-22T09:18:37.088Z,5.00
2017-11-22T09:21:04.660Z,5.10
2017-11-22T09:23:32.176Z,5.20
2017-11-22T09:26:00.448Z,5.30
2017-11-22T09:28:28.747Z,5.40
2017-11-22T09:44:16.792Z,5.50
2017-11-22T09:46:44.360Z,5.50
2017-11-22T09:49:11.872Z,5.60
2017-11-22T09:51:40.079Z,5.70
2017-11-22T09:54:07.585Z,5.70
2017-11-22T09:56:35.105Z,5.90
2017-11-22T09:59:02.666Z,6.00
2017-11-22T10:01:30.172Z,6.10
2017-11-22T10:03:57.681Z,6.20
2017-11-22T10:06:25.642Z,6.30
2017-11-22T10:08:53.631Z,6.60
2017-11-22T10:11:21.217Z,6.90
2017-11-22T10:13:49.300Z,7.10
2017-11-22T10:16:16.813Z,7.10
2017-11-22T10:18:45.797Z,7.30
2017-11-22T10:21:13.300Z,7.30
2017-11-22T10:23:40.803Z,7.30
2017-11-22T10:26:08.356Z,7.40
2017-11-22T10:28:35.863Z,7.40
2017-11-22T10:31:03.367Z,7.50
2017-11-22T10:33:38.675Z,7.60
2017-11-22T10:36:06.176Z,7.70
2017-11-22T10:38:33.684Z,8.00
2017-11-22T10:41:01.237Z,8.30
2017-11-22T10:43:28.740Z,8.60
2017-11-22T10:45:56.257Z,8.70
2017-11-22T10:48:23.997Z,8.80
2017-11-22T10:50:51.508Z,8.90
2017-11-22T10:53:19.012Z,9.10
2017-11-22T10:55:46.569Z,9.30
2017-11-22T10:58:14.396Z,9.40
2017-11-22T11:00:41.902Z,9.60
2017-11-22T11:03:09.460Z,9.90
2017-11-22T11:05:36.975Z,10.00
2017-11-22T11:08:04.484Z,10.20
2017-11-22T11:10:32.025Z,10.30
2017-11-22T11:12:59.557Z,10.50
2017-11-22T11:15:27.073Z,10.70
2017-11-22T11:17:55.020Z,10.90
2017-11-22T11:20:22.524Z,10.90
2017-11-22T11:22:50.718Z,10.80
2017-11-22T11:25:18.291Z,11.00
2017-11-22T11:27:45.803Z,11.20
2017-11-22T11:30:13.321Z,11.30
2017-11-22T11:32:40.888Z,11.40
2017-11-22T11:35:08.399Z,11.60
2017-11-22T11:37:36.321Z,11.70
2017-11-22T11:40:04.144Z,11.90
2017-11-22T11:42:31.659Z,12.00
2017-11-22T11:44:59.180Z,12.10
2017-11-22T11:47:27.028Z,12.30
2017-11-22T11:49:54.626Z,12.30
2017-11-22T11:52:22.148Z,12.50
2017-11-22T11:54:49.728Z,12.70
2017-11-22T11:57:17.249Z,12.70
2017-11-22T11:59:44.764Z,12.70
2017-11-22T12:02:12.708Z,12.90
2017-11-22T12:04:40.220Z,13.00
2017-11-22T12:07:07.730Z,13.00
2017-11-22T12:09:35.277Z,13.10
2017-11-22T12:12:18.129Z,13.20
2017-11-22T12:14:45.998Z,13.30
2017-11-22T12:17:13.511Z,13.40
2017-11-22T12:19:42.660Z,13.50
2017-11-22T12:22:13.771Z,13.40
2017-11-22T12:24:41.958Z,13.50
2017-11-22T12:27:09.521Z,13.60
2017-11-22T12:29:37.249Z,13.70
2017-11-22T12:32:04.940Z,13.90
2017-11-22T12:34:32.512Z,14.00
2017-11-22T12:37:00.016Z,14.20
2017-11-22T12:39:27.533Z,14.20
2017-11-22T12:41:55.071Z,14.20
2017-11-22T12:44:24.072Z,14.10
2017-11-22T12:46:51.573Z,14.10
2017-11-22T12:49:19.112Z,14.00
2017-11-22T12:51:46.612Z,14.10
2017-11-22T12:54:14.721Z,14.00
2017-11-22T12:56:42.847Z,14.00
2017-11-22T12:59:10.363Z,14.00
2017-11-22T13:01:37.864Z,14.00
2017-11-22T13:04:05.433Z,13.90
2017-11-22T13:06:32.938Z,13.90
2017-11-22T13:09:01.100Z,13.90
2017-11-22T13:24:49.300Z,13.80
2017-11-22T13:27:17.761Z,13.80
2017-11-22T13:29:45.283Z,13.70
2017-11-22T13:32:12.931Z,13.60
2017-11-22T13:34:40.436Z,13.60
2017-11-22T13:37:08.376Z,13.70
2017-11-22T13:39:36.864Z,13.70
2017-11-22T13:42:04.622Z,13.70
2017-11-22T13:44:32.163Z,13.70
2017-11-22T13:46:59.931Z,13.70
2017-11-22T13:49:27.444Z,13.60
2017-11-22T13:51:54.940Z,13.60
2017-11-22T13:54:22.498Z,13.70
2017-11-22T13:56:50.533Z,13.70
2017-11-22T13:59:18.045Z,13.60
2017-11-22T14:01:45.588Z,13.50
2017-11-22T14:04:13.083Z,13.50
2017-11-22T14:06:40.592Z,13.50
2017-11-22T14:09:08.693Z,13.50
2017-11-22T14:11:36.200Z,13.40
2017-11-22T14:14:03.703Z,13.30
2017-11-22T14:16:31.239Z,13.30
2017-11-22T14:18:58.752Z,13.20
2017-11-22T14:21:26.253Z,13.10
2017-11-22T14:23:53.821Z,13.10
2017-11-22T14:26:21.648Z,12.90
2017-11-22T14:28:49.156Z,12.90
2017-11-22T14:31:17.568Z,12.80
2017-11-22T14:33:45.068Z,12.70
2017-11-22T14:36:13.341Z,12.40
2017-11-22T14:38:40.923Z,12.40
2017-11-22T14:41:08.472Z,12.40
2017-11-22T14:43:35.983Z,12.30
2017-11-22T14:46:03.612Z,12.30
2017-11-22T14:48:31.115Z,12.10
2017-11-22T14:50:58.612Z,12.00
2017-11-22T14:53:26.268Z,11.90
2017-11-22T14:55:53.799Z,11.70
2017-11-22T14:58:21.609Z,11.70
2017-11-22T15:00:49.679Z,11.60
2017-11-22T15:03:17.260Z,11.40
2017-11-22T15:05:45.319Z,11.20
2017-11-22T15:08:12.868Z,11.10
2017-11-22T15:10:40.608Z,11.00
2017-11-22T15:13:08.228Z,10.90
2017-11-22T15:15:35.968Z,10.70
2017-11-22T15:18:03.481Z,10.70
2017-11-22T15:20:31.724Z,10.60
2017-11-22T15:22:59.652Z,10.50
2017-11-22T15:25:27.933Z,10.30
2017-11-22T15:27:55.503Z,10.30
2017-11-22T15:30:23.100Z,10.20
2017-11-22T15:32:51.328Z,10.10
2017-11-22T15:35:19.604Z,9.80
2017-11-22T15:37:47.967Z,9.80
2017-11-22T15:40:15.480Z,9.70
2017-11-22T15:42:42.988Z,9.60
2017-11-22T15:45:11.288Z,9.40
2017-11-22T15:47:38.800Z,9.40
2017-11-22T15:50:06.316Z,9.40
2017-11-22T15:52:33.977Z,9.30
2017-11-22T15:55:01.805Z,9.30
2017-11-22T15:57:29.316Z,9.30
2017-11-22T15:59:56.824Z,9.40
2017-11-22T16:02:25.190Z,9.70
2017-11-22T16:04:52.698Z,9.70
2017-11-22T16:07:20.204Z,9.80
2017-11-22T16:09:47.799Z,9.80
2017-11-22T16:12:15.309Z,9.80
2017-11-22T16:14:42.816Z,9.70
2017-11-22T16:17:10.429Z,9.60
2017-11-22T16:19:37.936Z,9.40
2017-11-22T16:22:05.448Z,9.30
2017-11-22T16:24:33.008Z,9.30
2017-11-22T16:27:00.524Z,9.20
2017-11-22T16:29:28.023Z,9.10
2017-11-22T16:31:55.626Z,8.90
2017-11-22T16:34:23.939Z,8.70
2017-11-22T16:36:51.491Z,8.70
2017-11-22T16:39:19.198Z,8.60
2017-11-22T16:41:46.696Z,8.40
2017-11-22T16:44:14.676Z,8.40
2017-11-22T16:46:42.803Z,8.30
2017-11-22T16:49:10.932Z,8.30
2017-11-22T16:51:39.088Z,8.30
2017-11-22T16:54:06.745Z,8.50
2017-11-22T16:56:34.531Z,8.30
2017-11-22T16:59:02.121Z,8.10
2017-11-22T17:01:29.711Z,7.90
2017-11-22T17:03:57.233Z,7.80
2017-11-22T17:06:24.743Z,7.70
2017-11-22T17:08:52.653Z,7.60
2017-11-22T17:11:20.157Z,7.50
2017-11-22T17:13:47.674Z,7.50
2017-11-22T17:16:15.229Z,7.50
2017-11-22T17:18:42.728Z,7.50
2017-11-22T17:21:10.236Z,7.40
2017-11-22T17:23:37.834Z,7.30
2017-11-22T17:26:05.352Z,7.20
2017-11-22T17:28:33.176Z,7.00
2017-11-22T17:31:01.070Z,6.90
2017-11-22T17:33:28.947Z,6.90
2017-11-22T17:35:56.567Z,6.80
2017-11-22T17:38:24.195Z,6.70
2017-11-22T17:40:51.706Z,6.60
2017-11-22T17:43:19.264Z,6.50
2017-11-22T17:45:46.825Z,6.40
2017-11-22T17:48:14.381Z,6.50
2017-11-22T17:50:42.004Z,6.40
2017-11-22T17:53:09.602Z,6.40
2017-11-22T17:55:37.170Z,6.30
2017-11-22T17:58:04.949Z,6.30
2017-11-22T18:00:32.494Z,6.20
2017-11-22T18:02:59.999Z,6.10
2017-11-22T18:05:27.605Z,6.10
2017-11-22T18:07:55.162Z,6.00
2017-11-22T18:10:22.716Z,5.90
2017-11-22T18:12:51.027Z,5.80
2017-11-22T18:15:18.573Z,5.80
2017-11-22T18:17:46.092Z,5.70
2017-11-22T18:20:13.684Z,5.60
2017-11-22T18:22:41.238Z,5.60
2017-11-22T18:25:09.578Z,5.40
2017-11-22T18:27:37.188Z,5.40
2017-11-22T18:30:04.700Z,5.40
2017-11-22T18:32:32.212Z,5.30
2017-11-22T18:34:59.813Z,5.30
2017-11-22T18:37:27.486Z,5.30
2017-11-22T18:39:55.045Z,5.20
2017-11-22T18:42:22.715Z,5.20
2017-11-22T18:44:50.214Z,5.20
2017-11-22T18:47:17.780Z,5.10
2017-11-22T18:49:45.337Z,5.10
2017-11-22T18:52:12.986Z,5.00
2017-11-22T18:54:40.503Z,4.90
2017-11-22T18:57:08.064Z,4.90
2017-11-22T18:59:35.622Z,4.90
2017-11-22T19:02:03.124Z,4.80
2017-11-22T19:04:30.690Z,4.70
2017-11-22T19:06:58.237Z,4.60
2017-11-22T19:09:25.797Z,4.60
2017-11-22T19:11:53.409Z,4.50
2017-11-22T19:14:20.971Z,4.50
2017-11-22T19:16:49.375Z,4.60
2017-11-22T19:19:17.737Z,4.50
2017-11-22T19:21:45.291Z,4.50
2017-11-22T19:24:12.878Z,4.60
2017-11-22T19:26:40.498Z,4.50
2017-11-22T19:29:08.108Z,4.50
2017-11-22T19:31:35.620Z,4.40
2017-11-22T19:34:03.255Z,4.40
2017-11-22T19:36:31.384Z,4.40
2017-11-22T19:38:58.979Z,4.30
2017-11-22T19:41:26.589Z,4.30
2017-11-22T19:43:54.152Z,4.30
2017-11-22T19:46:21.707Z,4.30
2017-11-22T19:48:49.719Z,4.40
2017-11-22T19:51:17.496Z,4.40
2017-11-22T19:53:45.064Z,4.30
2017-11-22T19:56:12.691Z,4.40
2017-11-22T19:58:40.368Z,4.40
2017-11-22T20:01:08.926Z,4.40
2017-11-22T20:03:36.929Z,4.30
2017-11-22T20:06:05.035Z,4.40
2017-11-22T20:08:41.374Z,4.40
2017-11-22T20:11:09.098Z,4.50
2017-11-22T20:13:37.386Z,4.40
2017-11-22T20:16:06.729Z,4.30
2017-11-22T20:18:35.433Z,4.30
2017-11-22T20:21:02.948Z,4.30
2017-11-22T20:23:31.214Z,4.20
2017-11-22T20:25:59.504Z,4.00
2017-11-22T20:28:28.161Z,4.00
2017-11-22T20:30:57.023Z,4.20
2017-11-22T20:33:25.319Z,4.20
2017-11-22T20:35:53.475Z,4.10
2017-11-22T20:38:21.932Z,4.10
2017-11-22T20:40:50.186Z,4.10
2017-11-22T20:43:18.558Z,4.30
2017-11-22T20:45:46.169Z,4.30
2017-11-22T20:48:13.734Z,4.20
2017-11-22T20:50:41.296Z,4.10
2017-11-22T20:53:09.303Z,4.10
2017-11-22T20:55:37.624Z,3.90
2017-11-22T20:58:05.142Z,3.90
2017-11-22T21:00:32.863Z,4.10
2017-11-22T21:03:00.755Z,4.20
2017-11-22T21:05:28.492Z,4.10
2017-11-22T21:07:56.055Z,3.90
2017-11-22T21:10:23.785Z,3.70
2017-11-22T21:12:51.333Z,3.60
2017-11-22T21:15:18.889Z,3.50
2017-11-22T21:17:46.487Z,3.50
2017-11-22T21:20:14.035Z,3.50
2017-11-22T21:22:41.632Z,3.50
2017-11-22T21:25:09.194Z,3.40
2017-11-22T21:27:36.767Z,3.40
2017-11-22T21:30:05.139Z,3.30
2017-11-22T21:32:32.697Z,3.30
2017-11-22T21:35:00.246Z,3.20
2017-11-22T21:37:27.868Z,3.10
2017-11-22T21:39:55.609Z,3.10
2017-11-22T21:42:23.166Z,3.00
2017-11-22T21:44:51.880Z,3.00
2017-11-22T21:47:19.689Z,3.00
2017-11-22T21:49:47.243Z,3.00
2017-11-22T21:52:15.468Z,2.90
2017-11-22T21:54:43.736Z,2.80
2017-11-22T21:57:11.990Z,2.70
2017-11-22T21:59:41.168Z,2.50
2017-11-22T22:02:08.766Z,2.50
2017-11-22T22:04:36.324Z,2.40
2017-11-22T22:07:03.936Z,2.40
2017-11-22T22:09:31.500Z,2.30
2017-11-22T22:11:59.094Z,2.20
2017-11-22T22:14:26.668Z,2.30
2017-11-22T22:16:54.983Z,2.40
2017-11-22T22:19:22.585Z,2.40
2017-11-22T22:21:50.899Z,2.40
2017-11-22T22:24:18.405Z,2.40
2017-11-22T22:26:46.365Z,2.30
2017-11-22T22:29:13.872Z,2.40
2017-11-22T22:31:41.384Z,2.30
2017-11-22T22:34:09.004Z,2.30
2017-11-22T22:36:36.552Z,2.40
2017-11-22T22:39:04.071Z,2.40
2017-11-22T22:41:32.034Z,2.50
2017-11-22T22:43:59.577Z,2.50
2017-11-22T22:46:27.121Z,2.40
2017-11-22T22:48:54.760Z,2.40
2017-11-22T22:51:22.274Z,2.30
2017-11-22T22:53:49.806Z,2.20
2017-11-22T22:56:17.365Z,2.20
2017-11-22T22:58:44.872Z,2.30
2017-11-22T23:01:12.395Z,2.50
2017-11-22T23:03:40.007Z,2.50
2017-11-22T23:06:07.926Z,2.40
2017-11-22T23:08:35.486Z,2.20
2017-11-22T23:11:03.065Z,2.20
2017-11-22T23:13:30.567Z,2.10
2017-11-22T23:15:58.114Z,2.10
2017-11-22T23:18:26.615Z,2.10
2017-11-22T23:20:54.161Z,2.00
2017-11-22T23:23:21.664Z,2.10
2017-11-22T23:25:49.216Z,2.10
2017-11-22T23:28:16.719Z,2.10
2017-11-22T23:30:44.232Z,2.20
2017-11-22T23:33:11.796Z,2.30
2017-11-22T23:35:39.300Z,2.40
2017-11-22T23:38:07.622Z,2.70
2017-11-22T23:40:35.230Z,2.70
2017-11-22T23:43:02.740Z,2.80
2017-11-22T23:45:30.244Z,2.60
2017-11-22T23:47:57.796Z,2.40
2017-11-22T23:50:25.308Z,2.40
2017-11-22T23:52:52.827Z,2.30
2017-11-22T23:55:20.421Z,2.10
2017-11-22T23:57:47.935Z,1.90
